Walters, Oklahoma
Current Conditions -  °F | °C
As of 4:53 PM on Friday 31 Oct 2014 (Local Time) from KLAW Reporting Station
Light Rain Light Rain  
Wind Chill: 62°   Ceiling: Unl
Heat Index: 62°   Visibility: 10mi
Dew Point: 26°   Wind: 16mph
Humidity: 25%   Direction: 40°NE
Pressure: 30.36"   Gusts: NA
Location:  34.36°N, 98.31°W
Report Text: KLAW 312153Z 04014KT 10SM -RA CLR 17/M03 A3036 RMK AO2 SLP278 P0000 T01671033
Loading
Personal Weather Stations






























Interactive Weather Map
Tropical Storm Tracking
New forecast layout! Learn more

10-Day Weather Forecast

Advertisements
Track Severe Weather on mobile